Time;durP1;ratioP1;P1;durP2;ratioP2;P2;SDS_P1;SDS_P2;PMS_P1;PMS_P2;Temp;Humidity;BMP_temperature;BMP_pressure;BME280_temperature;BME280_humidity;BME280_pressure;Samples;Min_cycle;Max_cycle;Signal;HPM_P1;HPM_P2
2023/03/05 00:00:26;;;;;;;9.32;2.50;;;;;;;;;;5063349;27;92275;-75
2023/03/05 00:02:55;;;;;;;8.93;2.78;;;;;;;;;;5081081;27;94954;-76
2023/03/05 00:05:22;;;;;;;7.80;2.10;;;;;;;;;;5063516;27;93657;-75
2023/03/05 00:07:48;;;;;;;9.38;2.00;;;;;;;;;;5067289;27;99769;-77
2023/03/05 00:10:15;;;;;;;8.50;1.98;;;;;;;;;;5095953;27;93727;-75
2023/03/05 00:12:41;;;;;;;7.70;2.00;;;;;;;;;;5062703;27;92532;-74
2023/03/05 00:15:08;;;;;;;8.60;2.40;;;;;;;;;;5063673;27;92443;-75
2023/03/05 00:17:34;;;;;;;8.45;1.98;;;;;;;;;;5082347;27;92843;-75
2023/03/05 00:20:01;;;;;;;9.35;2.20;;;;;;;;;;5082203;27;91556;-74
2023/03/05 00:22:27;;;;;;;9.43;2.15;;;;;;;;;;5061889;27;94047;-74
2023/03/05 00:24:54;;;;;;;8.43;2.08;;;;;;;;;;5081285;27;92179;-74
2023/03/05 00:27:20;;;;;;;6.80;1.90;;;;;;;;;;5080011;27;95289;-74
2023/03/05 00:29:47;;;;;;;9.02;2.20;;;;;;;;;;5081114;27;92796;-75
2023/03/05 00:32:13;;;;;;;7.25;2.15;;;;;;;;;;5080427;27;95272;-74
2023/03/05 00:34:40;;;;;;;6.28;1.88;;;;;;;;;;5080449;27;92419;-75
2023/03/05 00:37:06;;;;;;;6.80;1.83;;;;;;;;;;5080575;27;92842;-75
2023/03/05 00:39:33;;;;;;;7.80;1.95;;;;;;;;;;5062664;27;92820;-74
2023/03/05 00:41:59;;;;;;;8.63;2.13;;;;;;;;;;5062684;27;93301;-75
2023/03/05 00:44:26;;;;;;;8.10;2.40;;;;;;;;;;5062509;27;93860;-74
2023/03/05 00:46:53;;;;;;;9.10;2.00;;;;;;;;;;5059997;27;92736;-74
2023/03/05 00:49:19;;;;;;;8.90;2.30;;;;;;;;;;5084588;27;93089;-74
2023/03/05 00:51:46;;;;;;;8.57;2.00;;;;;;;;;;5061211;27;95879;-75
2023/03/05 00:54:12;;;;;;;8.05;2.00;;;;;;;;;;5081101;27;95113;-75
2023/03/05 00:56:39;;;;;;;7.75;2.22;;;;;;;;;;5081515;27;92732;-75
2023/03/05 00:59:05;;;;;;;9.75;2.05;;;;;;;;;;5082065;27;92552;-75
2023/03/05 01:01:32;;;;;;;6.93;2.05;;;;;;;;;;5081764;27;93928;-74
2023/03/05 01:03:59;;;;;;;7.13;1.60;;;;;;;;;;5062380;27;94458;-75
2023/03/05 01:06:26;;;;;;;10.90;2.00;;;;;;;;;;5080640;27;91980;-75
2023/03/05 01:08:52;;;;;;;6.07;1.90;;;;;;;;;;5069444;27;95056;-74
2023/03/05 01:11:19;;;;;;;5.63;1.80;;;;;;;;;;5069210;27;92649;-74
2023/03/05 01:13:45;;;;;;;7.85;1.80;;;;;;;;;;5081397;27;92022;-74
2023/03/05 01:16:12;;;;;;;8.05;2.17;;;;;;;;;;5079774;27;95137;-74
2023/03/05 01:18:39;;;;;;;9.43;2.30;;;;;;;;;;5080618;27;92056;-75
2023/03/05 01:21:05;;;;;;;6.35;1.80;;;;;;;;;;5080989;27;93528;-75
2023/03/05 01:23:34;;;;;;;8.20;2.10;;;;;;;;;;5061919;27;94803;-75
2023/03/05 01:26:01;;;;;;;7.25;1.70;;;;;;;;;;5061380;27;93203;-76
2023/03/05 01:28:27;;;;;;;6.20;1.90;;;;;;;;;;5056369;27;94059;-75
2023/03/05 01:30:53;;;;;;;6.03;1.75;;;;;;;;;;5080169;27;94149;-75
2023/03/05 01:33:20;;;;;;;6.18;2.00;;;;;;;;;;5066380;27;91420;-75
2023/03/05 01:35:47;;;;;;;6.20;1.80;;;;;;;;;;5080708;27;93133;-75
2023/03/05 01:38:14;;;;;;;5.10;1.70;;;;;;;;;;5062458;27;92470;-75
2023/03/05 01:40:41;;;;;;;7.57;1.60;;;;;;;;;;5059906;27;95223;-75
2023/03/05 01:43:10;;;;;;;6.38;1.50;;;;;;;;;;5080748;27;92434;-74
2023/03/05 01:45:37;;;;;;;7.35;1.80;;;;;;;;;;5081156;27;92568;-75
2023/03/05 01:48:04;;;;;;;6.80;1.92;;;;;;;;;;5062615;27;94141;-74
2023/03/05 01:50:30;;;;;;;6.90;1.70;;;;;;;;;;5077061;27;92168;-75
2023/03/05 01:52:59;;;;;;;7.35;1.90;;;;;;;;;;5060814;27;92573;-76
2023/03/05 01:55:27;;;;;;;6.90;1.90;;;;;;;;;;5087314;27;92237;-76
2023/03/05 01:58:20;;;;;;;7.38;1.95;;;;;;;;;;5066297;27;91757;-75
2023/03/05 02:00:47;;;;;;;7.40;1.90;;;;;;;;;;5049267;27;93673;-75
2023/03/05 02:03:13;;;;;;;7.47;1.85;;;;;;;;;;5084529;27;93128;-76
2023/03/05 02:05:43;;;;;;;7.32;1.95;;;;;;;;;;5064542;27;94462;-75
2023/03/05 02:08:11;;;;;;;7.55;1.88;;;;;;;;;;5067280;27;97255;-75
2023/03/05 02:10:37;;;;;;;10.45;2.20;;;;;;;;;;5078385;27;94909;-75
2023/03/05 02:13:07;;;;;;;7.97;2.00;;;;;;;;;;5084743;27;92317;-75
2023/03/05 02:15:33;;;;;;;7.40;1.77;;;;;;;;;;5065677;27;92572;-75
2023/03/05 02:18:00;;;;;;;7.32;1.90;;;;;;;;;;5087558;27;93070;-75
2023/03/05 02:20:28;;;;;;;7.55;2.00;;;;;;;;;;5061251;27;94943;-75
2023/03/05 02:22:55;;;;;;;8.90;1.88;;;;;;;;;;5084371;27;92094;-75
2023/03/05 02:25:22;;;;;;;6.15;1.70;;;;;;;;;;5083776;27;92420;-75
2023/03/05 02:27:53;;;;;;;7.13;1.70;;;;;;;;;;5084523;27;92819;-75
2023/03/05 02:30:21;;;;;;;6.53;1.70;;;;;;;;;;5063778;27;97888;-75
2023/03/05 02:32:48;;;;;;;7.45;1.90;;;;;;;;;;5080194;27;92650;-76
2023/03/05 02:35:15;;;;;;;7.28;1.90;;;;;;;;;;5044925;27;95044;-75
2023/03/05 02:37:42;;;;;;;8.75;1.90;;;;;;;;;;5043988;27;92751;-75
2023/03/05 02:40:09;;;;;;;5.82;1.92;;;;;;;;;;5083892;27;92473;-76
2023/03/05 02:42:36;;;;;;;10.30;2.30;;;;;;;;;;5082794;27;92515;-76
2023/03/05 02:45:03;;;;;;;6.45;1.63;;;;;;;;;;5065117;27;92693;-76
2023/03/05 02:47:29;;;;;;;7.32;1.90;;;;;;;;;;5066166;27;94908;-76
2023/03/05 02:49:56;;;;;;;7.75;1.90;;;;;;;;;;5083797;27;92651;-76
2023/03/05 02:52:24;;;;;;;12.77;2.08;;;;;;;;;;5065415;27;92363;-75
2023/03/05 02:54:51;;;;;;;7.15;1.98;;;;;;;;;;5063187;27;97767;-75
2023/03/05 02:57:18;;;;;;;10.90;2.20;;;;;;;;;;5083656;27;92815;-75
2023/03/05 02:59:45;;;;;;;7.95;2.00;;;;;;;;;;5068376;27;93582;-76
2023/03/05 03:02:12;;;;;;;7.65;2.00;;;;;;;;;;5063704;27;92304;-76
2023/03/05 03:04:38;;;;;;;10.63;2.30;;;;;;;;;;5040211;27;92186;-75
2023/03/05 03:07:04;;;;;;;6.22;1.88;;;;;;;;;;5064978;27;95263;-75
2023/03/05 03:09:32;;;;;;;9.57;1.90;;;;;;;;;;5090112;27;93009;-74
2023/03/05 03:11:59;;;;;;;5.20;1.63;;;;;;;;;;5084012;27;91364;-75
2023/03/05 03:14:25;;;;;;;7.63;2.13;;;;;;;;;;5063000;27;92227;-76
2023/03/05 03:16:51;;;;;;;15.55;1.95;;;;;;;;;;5060189;27;93136;-75
2023/03/05 03:19:18;;;;;;;8.32;2.08;;;;;;;;;;5062582;27;94582;-76
2023/03/05 03:21:44;;;;;;;6.25;1.88;;;;;;;;;;5085541;27;95730;-76
2023/03/05 03:24:11;;;;;;;10.45;1.80;;;;;;;;;;5064922;27;91964;-76
2023/03/05 03:26:37;;;;;;;5.68;1.63;;;;;;;;;;5063221;27;95347;-76
2023/03/05 03:29:03;;;;;;;7.85;1.85;;;;;;;;;;5046860;27;93967;-76
2023/03/05 03:31:30;;;;;;;7.03;1.75;;;;;;;;;;5082990;27;92158;-74
2023/03/05 03:33:56;;;;;;;7.10;1.85;;;;;;;;;;5083333;27;92432;-73
2023/03/05 03:36:23;;;;;;;7.55;1.70;;;;;;;;;;5083804;27;91929;-73
2023/03/05 03:38:49;;;;;;;6.72;1.60;;;;;;;;;;5082913;27;92118;-74
2023/03/05 03:41:16;;;;;;;6.68;1.83;;;;;;;;;;5083291;27;92189;-75
2023/03/05 03:43:42;;;;;;;6.57;1.70;;;;;;;;;;5076019;27;95048;-76
2023/03/05 03:46:08;;;;;;;5.60;1.58;;;;;;;;;;5079906;27;94776;-74
2023/03/05 03:48:35;;;;;;;6.55;1.60;;;;;;;;;;5082054;27;92674;-75
2023/03/05 03:51:05;;;;;;;4.70;1.50;;;;;;;;;;5064162;27;92136;-75
2023/03/05 03:53:32;;;;;;;5.68;1.65;;;;;;;;;;5082955;27;92411;-75
2023/03/05 03:55:58;;;;;;;4.38;1.50;;;;;;;;;;5082362;27;93994;-75
2023/03/05 03:58:25;;;;;;;6.90;1.88;;;;;;;;;;5073580;27;93071;-76
2023/03/05 04:00:51;;;;;;;4.95;1.33;;;;;;;;;;5083146;27;92429;-76
2023/03/05 04:03:18;;;;;;;6.03;1.30;;;;;;;;;;5064220;27;92744;-76
2023/03/05 04:05:44;;;;;;;5.32;1.55;;;;;;;;;;5086094;27;92246;-75
2023/03/05 04:08:11;;;;;;;7.88;1.45;;;;;;;;;;5082401;27;95755;-76
2023/03/05 04:10:38;;;;;;;7.22;1.30;;;;;;;;;;5061294;27;92159;-75
2023/03/05 04:13:05;;;;;;;5.30;1.50;;;;;;;;;;5077250;27;94749;-74
2023/03/05 04:15:32;;;;;;;7.07;1.70;;;;;;;;;;5064578;27;92790;-75
2023/03/05 04:17:59;;;;;;;5.03;1.23;;;;;;;;;;5065366;27;92115;-76
2023/03/05 04:20:25;;;;;;;5.18;1.40;;;;;;;;;;5081908;27;92286;-75
2023/03/05 04:22:51;;;;;;;5.97;1.33;;;;;;;;;;5082288;27;93798;-76
2023/03/05 04:25:18;;;;;;;5.50;1.60;;;;;;;;;;5079854;27;91851;-76
2023/03/05 04:27:49;;;;;;;5.40;1.33;;;;;;;;;;5085338;27;92470;-75
2023/03/05 04:30:15;;;;;;;4.78;1.25;;;;;;;;;;5083485;27;92139;-75
2023/03/05 04:32:42;;;;;;;5.32;1.50;;;;;;;;;;5079871;27;95058;-75
2023/03/05 04:35:12;;;;;;;6.03;1.35;;;;;;;;;;5080054;27;92339;-77
2023/03/05 04:37:38;;;;;;;9.15;1.60;;;;;;;;;;5077396;27;92529;-75
2023/03/05 04:40:05;;;;;;;5.75;1.50;;;;;;;;;;5082251;27;92277;-75
2023/03/05 04:42:31;;;;;;;4.90;1.58;;;;;;;;;;5081099;27;92612;-75
2023/03/05 04:44:58;;;;;;;6.03;1.40;;;;;;;;;;5042232;27;92078;-75
2023/03/05 04:47:24;;;;;;;5.95;1.30;;;;;;;;;;5082595;27;92867;-75
2023/03/05 04:49:51;;;;;;;5.65;1.30;;;;;;;;;;5082174;27;91600;-74
2023/03/05 04:52:17;;;;;;;6.07;1.50;;;;;;;;;;5081514;27;92809;-73
2023/03/05 04:54:44;;;;;;;6.03;1.50;;;;;;;;;;5070473;27;92822;-73
2023/03/05 04:57:10;;;;;;;5.65;1.35;;;;;;;;;;5080512;27;95038;-74
2023/03/05 04:59:37;;;;;;;6.60;1.35;;;;;;;;;;5081294;27;96282;-74
2023/03/05 05:02:03;;;;;;;3.75;1.08;;;;;;;;;;5081759;27;94244;-75
2023/03/05 05:04:30;;;;;;;4.97;1.23;;;;;;;;;;5081375;27;92818;-75
2023/03/05 05:06:57;;;;;;;3.35;1.20;;;;;;;;;;5080755;27;92441;-74
2023/03/05 05:09:24;;;;;;;4.70;1.38;;;;;;;;;;5093377;27;92773;-75
2023/03/05 05:11:51;;;;;;;5.85;1.20;;;;;;;;;;5081629;27;92426;-75
2023/03/05 05:14:17;;;;;;;5.82;1.40;;;;;;;;;;5081584;27;92378;-74
2023/03/05 05:16:43;;;;;;;6.15;1.17;;;;;;;;;;5062384;27;93725;-75
2023/03/05 05:19:10;;;;;;;4.43;1.13;;;;;;;;;;5063492;27;94978;-74
2023/03/05 05:21:37;;;;;;;5.25;1.20;;;;;;;;;;5055304;27;97184;-75
2023/03/05 05:24:03;;;;;;;3.55;1.20;;;;;;;;;;5080631;27;92083;-75
2023/03/05 05:26:30;;;;;;;5.38;1.30;;;;;;;;;;5061955;27;95453;-75
2023/03/05 05:28:56;;;;;;;5.63;1.25;;;;;;;;;;5063159;27;94655;-74
2023/03/05 05:31:22;;;;;;;5.07;1.60;;;;;;;;;;5068029;27;92126;-74
2023/03/05 05:33:49;;;;;;;5.80;1.23;;;;;;;;;;5081827;27;93239;-75
2023/03/05 05:36:18;;;;;;;3.78;1.30;;;;;;;;;;5069618;27;92185;-75
2023/03/05 05:38:44;;;;;;;5.43;1.45;;;;;;;;;;5062893;27;94556;-74
2023/03/05 05:41:12;;;;;;;4.47;1.20;;;;;;;;;;5080905;27;92614;-75
2023/03/05 05:43:39;;;;;;;5.28;1.45;;;;;;;;;;5081526;27;92445;-74
2023/03/05 05:46:07;;;;;;;5.95;1.25;;;;;;;;;;5061412;27;94810;-74
2023/03/05 05:48:34;;;;;;;4.38;1.30;;;;;;;;;;5061240;27;95194;-73
2023/03/05 05:51:05;;;;;;;3.60;1.10;;;;;;;;;;5062565;27;92409;-74
2023/03/05 05:53:31;;;;;;;5.10;1.00;;;;;;;;;;5084330;27;92065;-74
2023/03/05 05:55:58;;;;;;;4.03;1.35;;;;;;;;;;5080953;27;92026;-74
2023/03/05 05:58:24;;;;;;;5.10;1.08;;;;;;;;;;5081332;27;92448;-74
2023/03/05 06:00:50;;;;;;;6.18;1.30;;;;;;;;;;5082103;27;92723;-73
2023/03/05 06:03:17;;;;;;;4.95;1.15;;;;;;;;;;5094077;27;92055;-74
2023/03/05 06:05:43;;;;;;;3.75;1.10;;;;;;;;;;5059999;27;92241;-73
2023/03/05 06:08:10;;;;;;;3.05;1.20;;;;;;;;;;5068129;27;92649;-75
2023/03/05 06:10:37;;;;;;;6.07;1.33;;;;;;;;;;5059906;27;94850;-74
2023/03/05 06:13:03;;;;;;;5.03;1.15;;;;;;;;;;5062286;27;94568;-75
2023/03/05 06:15:30;;;;;;;4.45;1.30;;;;;;;;;;5065212;27;95531;-75
2023/03/05 06:17:58;;;;;;;2.55;1.08;;;;;;;;;;5056141;27;92797;-75
2023/03/05 06:20:24;;;;;;;;;;;;;;;;;;5079117;27;92781;-76
2023/03/05 06:22:50;;;;;;;5.10;1.10;;;;;;;;;;5081913;27;110723;-76
2023/03/05 06:25:17;;;;;;;3.97;1.10;;;;;;;;;;5062024;27;92480;-75
2023/03/05 06:27:43;;;;;;;4.05;1.10;;;;;;;;;;5080730;27;92426;-75
2023/03/05 06:30:10;;;;;;;8.60;1.27;;;;;;;;;;5045453;27;92461;-75
2023/03/05 06:32:37;;;;;;;4.70;1.30;;;;;;;;;;5061445;27;92352;-75
2023/03/05 06:35:03;;;;;;;5.55;1.10;;;;;;;;;;5059650;27;97308;-75
2023/03/05 06:37:30;;;;;;;5.28;1.60;;;;;;;;;;5086920;27;92404;-75
2023/03/05 06:39:56;;;;;;;3.22;0.93;;;;;;;;;;5064876;27;93093;-74
2023/03/05 06:42:23;;;;;;;3.45;1.10;;;;;;;;;;5083807;27;92771;-75
2023/03/05 06:44:49;;;;;;;4.93;0.95;;;;;;;;;;5064841;27;96661;-75
2023/03/05 06:47:15;;;;;;;2.60;1.00;;;;;;;;;;5082721;27;93192;-75
2023/03/05 06:49:42;;;;;;;4.05;0.90;;;;;;;;;;5083256;27;92433;-75
2023/03/05 06:52:09;;;;;;;5.30;1.33;;;;;;;;;;5083982;27;92643;-74
2023/03/05 06:54:35;;;;;;;2.60;1.08;;;;;;;;;;5082885;27;93329;-75
2023/03/05 06:57:01;;;;;;;5.03;1.17;;;;;;;;;;5068332;27;92252;-75
2023/03/05 06:59:28;;;;;;;2.58;1.17;;;;;;;;;;5080098;27;95882;-76
2023/03/05 07:01:54;;;;;;;4.22;1.30;;;;;;;;;;5064993;27;92708;-76
2023/03/05 07:04:22;;;;;;;4.57;1.10;;;;;;;;;;5082625;27;92494;-76
2023/03/05 07:06:49;;;;;;;3.55;1.02;;;;;;;;;;5083031;27;97866;-75
2023/03/05 07:09:15;;;;;;;5.55;1.10;;;;;;;;;;5083275;27;92449;-75
2023/03/05 07:11:42;;;;;;;3.33;1.00;;;;;;;;;;5083530;27;92475;-76
2023/03/05 07:14:08;;;;;;;5.25;1.23;;;;;;;;;;5060114;27;95229;-75
2023/03/05 07:16:35;;;;;;;3.75;1.10;;;;;;;;;;5072617;27;92203;-75
2023/03/05 07:19:03;;;;;;;3.42;0.90;;;;;;;;;;5085240;27;92592;-75
2023/03/05 07:21:31;;;;;;;4.75;1.27;;;;;;;;;;5064385;27;92352;-75
2023/03/05 07:23:57;;;;;;;;;;;;;;;;;;5081471;27;95009;-75
2023/03/05 07:26:25;;;;;;;3.53;0.90;;;;;;;;;;5082948;27;116896;-76
2023/03/05 07:28:51;;;;;;;3.28;1.00;;;;;;;;;;5075107;27;92510;-76
2023/03/05 07:31:19;;;;;;;2.72;0.90;;;;;;;;;;5083888;27;92823;-75
2023/03/05 07:33:46;;;;;;;4.35;1.05;;;;;;;;;;5064534;27;94875;-76
2023/03/05 07:36:13;;;;;;;3.10;1.00;;;;;;;;;;5081763;27;92251;-75
2023/03/05 07:38:39;;;;;;;1.52;0.68;;;;;;;;;;5082369;27;93069;-76
2023/03/05 07:41:08;;;;;;;2.95;0.90;;;;;;;;;;5085583;27;91814;-76
2023/03/05 07:43:35;;;;;;;3.33;1.08;;;;;;;;;;5064270;27;92399;-74
2023/03/05 07:46:05;;;;;;;3.35;0.90;;;;;;;;;;5081966;27;93139;-76
2023/03/05 07:48:32;;;;;;;2.85;0.80;;;;;;;;;;5078909;27;94567;-75
2023/03/05 07:50:59;;;;;;;3.20;1.02;;;;;;;;;;5081718;27;94973;-74
2023/03/05 07:53:26;;;;;;;2.55;0.88;;;;;;;;;;5082723;27;92767;-75
2023/03/05 07:55:52;;;;;;;3.00;0.98;;;;;;;;;;5081474;27;93531;-74
2023/03/05 07:58:18;;;;;;;2.05;0.85;;;;;;;;;;5081978;27;97092;-75
2023/03/05 08:00:45;;;;;;;3.20;1.10;;;;;;;;;;5062393;27;94860;-75
2023/03/05 08:03:11;;;;;;;1.98;0.73;;;;;;;;;;5085254;27;92169;-76
2023/03/05 08:05:38;;;;;;;1.83;0.90;;;;;;;;;;5063171;27;93843;-75
2023/03/05 08:08:05;;;;;;;2.72;1.00;;;;;;;;;;5082551;27;92449;-74
2023/03/05 08:10:32;;;;;;;4.03;0.82;;;;;;;;;;5078958;27;92831;-75
2023/03/05 08:12:58;;;;;;;3.30;0.90;;;;;;;;;;5080042;27;95150;-74
2023/03/05 08:15:25;;;;;;;1.75;0.90;;;;;;;;;;5082048;27;92440;-75
2023/03/05 08:17:51;;;;;;;2.50;0.80;;;;;;;;;;5082265;27;93018;-75
2023/03/05 08:20:18;;;;;;;2.08;0.90;;;;;;;;;;5081443;27;92808;-75
2023/03/05 08:22:45;;;;;;;4.82;1.20;;;;;;;;;;5063549;27;92480;-73
2023/03/05 08:25:11;;;;;;;8.88;1.15;;;;;;;;;;5073500;27;93410;-76
2023/03/05 08:27:42;;;;;;;4.45;0.95;;;;;;;;;;5059906;27;92070;-74
2023/03/05 08:30:10;;;;;;;2.65;0.82;;;;;;;;;;5062909;27;92498;-76
2023/03/05 08:32:37;;;;;;;3.10;0.90;;;;;;;;;;5059288;27;94961;-75
2023/03/05 08:35:04;;;;;;;3.90;1.00;;;;;;;;;;5061295;27;92771;-75
2023/03/05 08:37:30;;;;;;;2.40;0.80;;;;;;;;;;5059087;27;94874;-75
2023/03/05 08:39:57;;;;;;;2.40;0.82;;;;;;;;;;5059957;27;92658;-75
2023/03/05 08:42:23;;;;;;;1.95;0.90;;;;;;;;;;5061136;27;92019;-74
2023/03/05 08:44:50;;;;;;;3.08;0.98;;;;;;;;;;5061141;27;97070;-75
2023/03/05 08:47:17;;;;;;;1.55;0.80;;;;;;;;;;5049948;27;92676;-76
2023/03/05 08:49:44;;;;;;;2.83;0.80;;;;;;;;;;5060518;27;92651;-76
2023/03/05 08:52:10;;;;;;;2.13;0.90;;;;;;;;;;5059615;27;94707;-76
2023/03/05 08:54:37;;;;;;;1.35;0.70;;;;;;;;;;5060425;27;91919;-75
2023/03/05 08:57:04;;;;;;;2.30;0.80;;;;;;;;;;5061120;27;92316;-77
2023/03/05 08:59:30;;;;;;;5.78;0.82;;;;;;;;;;5058980;27;93134;-76
2023/03/05 09:02:00;;;;;;;3.15;0.90;;;;;;;;;;5058154;27;95072;-75
2023/03/05 09:04:26;;;;;;;4.88;0.82;;;;;;;;;;5059259;27;95149;-73
2023/03/05 09:06:53;;;;;;;4.60;0.90;;;;;;;;;;5067989;27;92749;-75
2023/03/05 09:09:20;;;;;;;1.73;0.80;;;;;;;;;;5060255;27;92024;-75
2023/03/05 09:11:46;;;;;;;2.85;1.00;;;;;;;;;;5057567;27;92694;-75
2023/03/05 09:14:13;;;;;;;6.07;1.00;;;;;;;;;;5057519;27;92288;-75
2023/03/05 09:16:40;;;;;;;3.15;0.90;;;;;;;;;;5059955;27;92534;-75
2023/03/05 09:19:11;;;;;;;;;;;;;;;;;;5061475;27;92155;-75
2023/03/05 09:21:38;;;;;;;3.03;0.93;;;;;;;;;;5059862;27;113240;-73
2023/03/05 09:24:04;;;;;;;4.22;1.00;;;;;;;;;;5060613;27;92455;-74
2023/03/05 09:26:31;;;;;;;2.25;0.88;;;;;;;;;;5058477;27;95462;-76
2023/03/05 09:28:57;;;;;;;2.38;0.80;;;;;;;;;;5061483;27;92434;-75
2023/03/05 09:31:24;;;;;;;2.63;0.90;;;;;;;;;;5060386;27;93518;-75
2023/03/05 09:33:50;;;;;;;3.15;1.10;;;;;;;;;;5060814;27;92004;-74
2023/03/05 09:36:21;;;;;;;2.55;0.82;;;;;;;;;;5050576;27;92019;-73
2023/03/05 09:38:48;;;;;;;3.75;0.90;;;;;;;;;;5057897;27;92783;-73
2023/03/05 09:41:25;;;;;;;3.17;1.20;;;;;;;;;;5059710;27;92609;-74
2023/03/05 09:44:15;;;;;;;3.17;0.90;;;;;;;;;;5066173;27;92607;-75
2023/03/05 09:47:00;;;;;;;4.53;1.00;;;;;;;;;;5057109;27;93141;-74
2023/03/05 09:49:46;;;;;;;2.78;0.80;;;;;;;;;;5058298;27;92450;-75
2023/03/05 09:52:44;;;;;;;2.92;0.80;;;;;;;;;;5049744;27;94742;-74
2023/03/05 09:55:30;;;;;;;2.53;0.80;;;;;;;;;;5020445;27;92605;-76
2023/03/05 09:58:02;;;;;;;2.97;0.80;;;;;;;;;;5064405;27;92615;-76
2023/03/05 10:00:33;;;;;;;5.45;0.90;;;;;;;;;;5054899;27;94686;-78
2023/03/05 10:03:02;;;;;;;5.93;1.00;;;;;;;;;;5058491;27;92224;-79
2023/03/05 10:05:52;;;;;;;5.32;0.90;;;;;;;;;;5059170;27;94058;-75
2023/03/05 10:08:21;;;;;;;3.63;0.85;;;;;;;;;;5029810;27;92943;-75
2023/03/05 10:10:49;;;;;;;2.80;0.80;;;;;;;;;;5059208;27;91457;-78
2023/03/05 10:13:24;;;;;;;5.45;0.95;;;;;;;;;;5063804;27;92203;-76
2023/03/05 10:15:59;;;;;;;3.63;0.80;;;;;;;;;;5066637;27;93111;-76
2023/03/05 10:18:32;;;;;;;3.83;0.80;;;;;;;;;;5061892;27;94916;-77
2023/03/05 10:21:00;;;;;;;2.55;0.80;;;;;;;;;;5063068;27;92864;-76
2023/03/05 10:23:38;;;;;;;2.33;0.82;;;;;;;;;;5063164;27;92449;-75
2023/03/05 10:26:21;;;;;;;3.28;0.70;;;;;;;;;;5063551;27;92908;-77
2023/03/05 10:28:55;;;;;;;2.03;0.73;;;;;;;;;;5061249;27;93290;-76
2023/03/05 10:31:29;;;;;;;2.28;0.75;;;;;;;;;;5062998;27;92635;-76
2023/03/05 10:33:55;;;;;;;;;;;;;;;;;;5063963;27;92841;-76
2023/03/05 10:36:40;;;;;;;1.77;0.80;;;;;;;;;;5064190;27;121290;-76
2023/03/05 10:39:32;;;;;;;2.00;0.73;;;;;;;;;;5062909;27;92113;-76
2023/03/05 10:42:09;;;;;;;2.92;0.80;;;;;;;;;;5064441;27;92493;-77
2023/03/05 10:44:38;;;;;;;1.75;0.80;;;;;;;;;;5061232;27;94748;-76
2023/03/05 10:47:14;;;;;;;1.50;0.70;;;;;;;;;;5063277;27;94714;-76
2023/03/05 10:49:47;;;;;;;2.30;0.75;;;;;;;;;;5062958;27;92761;-77
2023/03/05 10:52:16;;;;;;;2.47;0.77;;;;;;;;;;5062415;27;92310;-76
2023/03/05 10:54:44;;;;;;;3.03;0.60;;;;;;;;;;5061212;27;92584;-76
2023/03/05 10:57:21;;;;;;;6.32;0.73;;;;;;;;;;5063121;27;92425;-77
2023/03/05 11:00:06;;;;;;;1.60;0.70;;;;;;;;;;5064918;27;92441;-76
2023/03/05 11:02:51;;;;;;;1.08;0.70;;;;;;;;;;5064575;27;92376;-74
2023/03/05 11:05:36;;;;;;;2.22;0.80;;;;;;;;;;5048158;27;92493;-76
2023/03/05 11:08:20;;;;;;;2.45;0.80;;;;;;;;;;5062089;27;92952;-77
2023/03/05 11:11:00;;;;;;;2.55;0.60;;;;;;;;;;5057673;27;95539;-77
2023/03/05 11:13:29;;;;;;;2.33;0.68;;;;;;;;;;5044574;27;92383;-77
2023/03/05 11:16:04;;;;;;;2.92;0.70;;;;;;;;;;5062310;27;92313;-76
2023/03/05 11:18:33;;;;;;;1.20;0.50;;;;;;;;;;5061539;27;92685;-76
2023/03/05 11:21:08;;;;;;;1.55;0.65;;;;;;;;;;5059121;27;92501;-76
2023/03/05 11:23:34;;;;;;;2.53;0.60;;;;;;;;;;5063344;27;92353;-76
2023/03/05 11:26:03;;;;;;;1.00;0.50;;;;;;;;;;5060575;27;92817;-76
2023/03/05 11:28:31;;;;;;;1.88;0.60;;;;;;;;;;5075265;27;92433;-76
2023/03/05 11:31:01;;;;;;;1.23;0.68;;;;;;;;;;5065734;27;94178;-76
2023/03/05 11:33:28;;;;;;;2.95;0.70;;;;;;;;;;5082434;27;92242;-77
2023/03/05 11:36:10;;;;;;;2.75;0.80;;;;;;;;;;5080735;27;94531;-77
2023/03/05 11:38:44;;;;;;;3.47;0.63;;;;;;;;;;5079170;27;93099;-77
2023/03/05 11:41:11;;;;;;;1.05;0.60;;;;;;;;;;5047322;27;92266;-77
2023/03/05 11:43:40;;;;;;;2.03;0.70;;;;;;;;;;5063791;27;92102;-76
2023/03/05 11:46:09;;;;;;;1.50;0.73;;;;;;;;;;5085074;27;92669;-76
2023/03/05 11:48:36;;;;;;;2.45;0.80;;;;;;;;;;5082322;27;92312;-77
2023/03/05 11:51:02;;;;;;;;;;;;;;;;;;5082942;27;93082;-76
2023/03/05 11:53:34;;;;;;;1.33;0.60;;;;;;;;;;5065899;27;118923;-76
2023/03/05 11:56:10;;;;;;;1.25;0.75;;;;;;;;;;5082259;27;92443;-76
2023/03/05 11:58:42;;;;;;;0.80;0.60;;;;;;;;;;5082077;27;92955;-76
2023/03/05 12:01:14;;;;;;;1.35;0.82;;;;;;;;;;5080343;27;94473;-76
2023/03/05 12:03:41;;;;;;;1.88;0.73;;;;;;;;;;5082344;27;94555;-76
2023/03/05 12:06:17;;;;;;;1.90;0.70;;;;;;;;;;5081342;27;92680;-77
2023/03/05 12:08:45;;;;;;;1.52;0.60;;;;;;;;;;5045949;27;92976;-77
2023/03/05 12:11:16;;;;;;;2.15;0.75;;;;;;;;;;5078995;27;92830;-77
2023/03/05 12:13:49;;;;;;;0.77;0.60;;;;;;;;;;5082547;27;92690;-76
2023/03/05 12:16:24;;;;;;;0.70;0.68;;;;;;;;;;5064615;27;92500;-75
2023/03/05 12:19:03;;;;;;;2.10;0.70;;;;;;;;;;5082427;27;96353;-76
2023/03/05 12:21:35;;;;;;;2.22;0.70;;;;;;;;;;5082674;27;92206;-77
2023/03/05 12:24:22;;;;;;;1.63;0.70;;;;;;;;;;5082015;27;92345;-76
2023/03/05 12:27:03;;;;;;;1.50;0.60;;;;;;;;;;5080176;27;98778;-76
2023/03/05 12:29:42;;;;;;;1.52;0.68;;;;;;;;;;5064120;27;92960;-76
2023/03/05 12:32:21;;;;;;;1.17;0.70;;;;;;;;;;5051079;27;95173;-76
2023/03/05 12:34:48;;;;;;;1.40;0.70;;;;;;;;;;5062239;27;92756;-77
2023/03/05 12:37:15;;;;;;;;;;;;;;;;;;5082402;27;95580;-76
2023/03/05 12:39:49;;;;;;;1.92;0.73;;;;;;;;;;5063951;27;111411;-76
2023/03/05 12:42:28;;;;;;;1.25;0.65;;;;;;;;;;5064198;27;92513;-76
2023/03/05 12:45:14;;;;;;;0.75;0.60;;;;;;;;;;5063596;27;96826;-76
2023/03/05 12:47:44;;;;;;;1.25;0.55;;;;;;;;;;5081871;27;92361;-76
2023/03/05 12:50:26;;;;;;;2.50;0.70;;;;;;;;;;5081528;27;92001;-76
2023/03/05 12:52:57;;;;;;;0.70;0.60;;;;;;;;;;5060724;27;98874;-76
2023/03/05 12:55:23;;;;;;;2.20;0.77;;;;;;;;;;5084794;27;92956;-76
2023/03/05 12:58:02;;;;;;;1.35;0.60;;;;;;;;;;5082272;27;92361;-76
2023/03/05 13:00:37;;;;;;;1.67;0.70;;;;;;;;;;5081114;27;92600;-76
2023/03/05 13:03:08;;;;;;;1.95;0.63;;;;;;;;;;5085245;27;92055;-76
2023/03/05 13:05:36;;;;;;;0.80;0.60;;;;;;;;;;5082188;27;92843;-76
2023/03/05 13:08:17;;;;;;;1.33;0.50;;;;;;;;;;5081734;27;92849;-76
2023/03/05 13:10:50;;;;;;;1.15;0.70;;;;;;;;;;5045168;27;95515;-76
2023/03/05 13:13:16;;;;;;;2.20;0.80;;;;;;;;;;5082136;27;92397;-76
2023/03/05 13:15:49;;;;;;;0.98;0.63;;;;;;;;;;5085060;27;93485;-76
2023/03/05 13:18:18;;;;;;;0.77;0.60;;;;;;;;;;5080672;27;94910;-76
2023/03/05 13:20:49;;;;;;;1.25;0.70;;;;;;;;;;5055829;27;93144;-75
2023/03/05 13:23:20;;;;;;;1.02;0.55;;;;;;;;;;5081925;27;92508;-75
2023/03/05 13:25:57;;;;;;;0.68;0.68;;;;;;;;;;5063181;27;92558;-75
2023/03/05 13:28:24;;;;;;;1.33;0.80;;;;;;;;;;5061779;27;95813;-78
2023/03/05 13:30:51;;;;;;;1.38;0.60;;;;;;;;;;5046740;27;92705;-76
2023/03/05 13:33:21;;;;;;;1.30;0.60;;;;;;;;;;5080775;27;92132;-76
2023/03/05 13:35:47;;;;;;;1.05;0.52;;;;;;;;;;5080666;27;92405;-76
2023/03/05 13:38:22;;;;;;;2.05;0.60;;;;;;;;;;5085053;27;92182;-76
2023/03/05 13:41:14;;;;;;;1.08;0.60;;;;;;;;;;5080968;27;92732;-76
2023/03/05 13:43:48;;;;;;;1.02;0.70;;;;;;;;;;5076293;27;94940;-76
2023/03/05 13:46:22;;;;;;;1.10;0.70;;;;;;;;;;5082674;27;94842;-76
2023/03/05 13:48:49;;;;;;;1.83;0.60;;;;;;;;;;5064753;27;99645;-76
2023/03/05 13:51:15;;;;;;;1.25;0.70;;;;;;;;;;5084776;27;92406;-76
2023/03/05 13:53:42;;;;;;;2.70;0.80;;;;;;;;;;5066614;27;92292;-76
2023/03/05 13:56:12;;;;;;;1.35;0.73;;;;;;;;;;5065136;27;94814;-77
2023/03/05 13:58:52;;;;;;;1.55;0.70;;;;;;;;;;5065301;27;92056;-77
2023/03/05 14:01:21;;;;;;;2.00;0.80;;;;;;;;;;5087534;27;92366;-76
2023/03/05 14:03:49;;;;;;;2.35;0.70;;;;;;;;;;5066192;27;92840;-76
2023/03/05 14:06:18;;;;;;;2.92;0.75;;;;;;;;;;5066094;27;92395;-76
2023/03/05 14:08:48;;;;;;;0.98;0.73;;;;;;;;;;5082260;27;95990;-76
2023/03/05 14:11:15;;;;;;;3.08;0.80;;;;;;;;;;5083956;27;94540;-76
2023/03/05 14:13:42;;;;;;;1.00;0.60;;;;;;;;;;5065743;27;95430;-76
2023/03/05 14:16:26;;;;;;;1.88;0.73;;;;;;;;;;5064491;27;95727;-75
2023/03/05 14:18:57;;;;;;;1.30;0.70;;;;;;;;;;5070264;27;92448;-76
2023/03/05 14:21:23;;;;;;;1.67;0.70;;;;;;;;;;5084429;27;92335;-76
2023/03/05 14:23:53;;;;;;;1.20;0.80;;;;;;;;;;5068989;27;92854;-76
2023/03/05 14:26:33;;;;;;;1.70;0.68;;;;;;;;;;5066649;27;92261;-76
2023/03/05 14:29:00;;;;;;;1.95;0.80;;;;;;;;;;5065185;27;98059;-77
2023/03/05 14:31:28;;;;;;;0.80;0.80;;;;;;;;;;5064382;27;93138;-77
2023/03/05 14:33:59;;;;;;;1.63;0.70;;;;;;;;;;5082988;27;94727;-77
2023/03/05 14:36:27;;;;;;;0.90;0.77;;;;;;;;;;5083611;27;93266;-77
2023/03/05 14:38:55;;;;;;;1.52;0.50;;;;;;;;;;5049150;27;92410;-77
2023/03/05 14:41:36;;;;;;;1.42;0.80;;;;;;;;;;5065544;27;93405;-76
2023/03/05 14:44:09;;;;;;;1.40;0.68;;;;;;;;;;5081946;27;93141;-77
2023/03/05 14:46:35;;;;;;;0.70;0.68;;;;;;;;;;5077287;27;92065;-77
2023/03/05 14:49:02;;;;;;;1.60;0.77;;;;;;;;;;5064745;27;95469;-76
2023/03/05 14:51:29;;;;;;;1.38;0.93;;;;;;;;;;5065981;27;91350;-76
2023/03/05 14:53:57;;;;;;;0.80;0.70;;;;;;;;;;5065634;27;92172;-76